sensor_id;sensor_type;location;lat;lon;timestamp;P1;durP1;ratioP1;P2;durP2;ratioP2
21806;SDS011;11065;50.786;7.840;2022-10-17T00:00:39;4.47;;;2.67;;
21806;SDS011;11065;50.786;7.840;2022-10-17T00:03:06;6.73;;;3.30;;
21806;SDS011;11065;50.786;7.840;2022-10-17T00:05:37;5.87;;;3.43;;
21806;SDS011;11065;50.786;7.840;2022-10-17T00:08:05;8.60;;;3.10;;
21806;SDS011;11065;50.786;7.840;2022-10-17T00:10:32;7.03;;;3.23;;
21806;SDS011;11065;50.786;7.840;2022-10-17T00:12:58;5.33;;;2.77;;
21806;SDS011;11065;50.786;7.840;2022-10-17T00:15:26;5.30;;;3.33;;
21806;SDS011;11065;50.786;7.840;2022-10-17T00:17:52;4.67;;;3.10;;
21806;SDS011;11065;50.786;7.840;2022-10-17T00:20:19;5.77;;;3.30;;
21806;SDS011;11065;50.786;7.840;2022-10-17T00:22:46;7.10;;;3.37;;
21806;SDS011;11065;50.786;7.840;2022-10-17T00:25:13;7.23;;;3.27;;
21806;SDS011;11065;50.786;7.840;2022-10-17T00:27:40;6.63;;;3.40;;
21806;SDS011;11065;50.786;7.840;2022-10-17T00:30:08;5.20;;;3.60;;
21806;SDS011;11065;50.786;7.840;2022-10-17T00:32:38;4.43;;;3.27;;
21806;SDS011;11065;50.786;7.840;2022-10-17T00:35:05;8.57;;;3.47;;
21806;SDS011;11065;50.786;7.840;2022-10-17T00:37:33;6.87;;;3.37;;
21806;SDS011;11065;50.786;7.840;2022-10-17T00:40:00;6.50;;;3.50;;
21806;SDS011;11065;50.786;7.840;2022-10-17T00:42:27;7.27;;;3.13;;
21806;SDS011;11065;50.786;7.840;2022-10-17T00:44:59;5.27;;;2.87;;
21806;SDS011;11065;50.786;7.840;2022-10-17T00:47:31;3.83;;;2.77;;
21806;SDS011;11065;50.786;7.840;2022-10-17T00:49:58;5.10;;;2.90;;
21806;SDS011;11065;50.786;7.840;2022-10-17T00:52:30;5.97;;;3.37;;
21806;SDS011;11065;50.786;7.840;2022-10-17T00:55:17;5.37;;;2.97;;
21806;SDS011;11065;50.786;7.840;2022-10-17T00:57:49;4.27;;;3.10;;
21806;SDS011;11065;50.786;7.840;2022-10-17T01:00:17;9.40;;;4.20;;
21806;SDS011;11065;50.786;7.840;2022-10-17T01:02:44;7.33;;;3.13;;
21806;SDS011;11065;50.786;7.840;2022-10-17T01:05:11;5.80;;;3.70;;
21806;SDS011;11065;50.786;7.840;2022-10-17T01:07:40;6.50;;;3.40;;
21806;SDS011;11065;50.786;7.840;2022-10-17T01:10:09;7.30;;;3.63;;
21806;SDS011;11065;50.786;7.840;2022-10-17T01:12:44;5.63;;;3.20;;
21806;SDS011;11065;50.786;7.840;2022-10-17T01:15:43;5.97;;;3.27;;
21806;SDS011;11065;50.786;7.840;2022-10-17T01:23:59;6.10;;;3.73;;
21806;SDS011;11065;50.786;7.840;2022-10-17T01:26:57;6.77;;;3.60;;
21806;SDS011;11065;50.786;7.840;2022-10-17T01:32:34;5.70;;;3.67;;
21806;SDS011;11065;50.786;7.840;2022-10-17T01:35:14;5.93;;;3.40;;
21806;SDS011;11065;50.786;7.840;2022-10-17T01:38:03;5.50;;;3.13;;
21806;SDS011;11065;50.786;7.840;2022-10-17T01:40:48;6.83;;;3.60;;
21806;SDS011;11065;50.786;7.840;2022-10-17T01:45:52;5.60;;;3.13;;
21806;SDS011;11065;50.786;7.840;2022-10-17T01:48:26;8.07;;;3.80;;
21806;SDS011;11065;50.786;7.840;2022-10-17T01:51:03;6.83;;;3.20;;
21806;SDS011;11065;50.786;7.840;2022-10-17T01:53:38;6.60;;;3.37;;
21806;SDS011;11065;50.786;7.840;2022-10-17T01:56:10;5.40;;;2.93;;
21806;SDS011;11065;50.786;7.840;2022-10-17T01:58:40;4.87;;;3.40;;
21806;SDS011;11065;50.786;7.840;2022-10-17T02:01:11;5.33;;;3.17;;
21806;SDS011;11065;50.786;7.840;2022-10-17T02:03:39;6.33;;;3.30;;
21806;SDS011;11065;50.786;7.840;2022-10-17T02:06:08;10.50;;;3.60;;
21806;SDS011;11065;50.786;7.840;2022-10-17T02:08:40;6.60;;;3.10;;
21806;SDS011;11065;50.786;7.840;2022-10-17T02:11:09;4.87;;;2.80;;
21806;SDS011;11065;50.786;7.840;2022-10-17T02:16:33;5.00;;;2.67;;
21806;SDS011;11065;50.786;7.840;2022-10-17T02:30:36;7.00;;;3.13;;
21806;SDS011;11065;50.786;7.840;2022-10-17T02:33:11;6.10;;;2.80;;
21806;SDS011;11065;50.786;7.840;2022-10-17T02:35:48;7.33;;;3.67;;
21806;SDS011;11065;50.786;7.840;2022-10-17T02:38:19;4.30;;;3.17;;
21806;SDS011;11065;50.786;7.840;2022-10-17T02:40:49;4.73;;;2.90;;
21806;SDS011;11065;50.786;7.840;2022-10-17T02:43:18;7.33;;;2.90;;
21806;SDS011;11065;50.786;7.840;2022-10-17T02:45:45;6.50;;;3.00;;
21806;SDS011;11065;50.786;7.840;2022-10-17T02:50:55;7.87;;;2.80;;
21806;SDS011;11065;50.786;7.840;2022-10-17T02:56:17;6.30;;;2.67;;
21806;SDS011;11065;50.786;7.840;2022-10-17T02:58:47;7.17;;;2.60;;
21806;SDS011;11065;50.786;7.840;2022-10-17T03:01:20;7.87;;;2.70;;
21806;SDS011;11065;50.786;7.840;2022-10-17T03:03:47;5.47;;;2.80;;
21806;SDS011;11065;50.786;7.840;2022-10-17T03:06:14;6.50;;;2.67;;
21806;SDS011;11065;50.786;7.840;2022-10-17T03:08:41;4.73;;;2.73;;
21806;SDS011;11065;50.786;7.840;2022-10-17T03:11:09;4.37;;;2.57;;
21806;SDS011;11065;50.786;7.840;2022-10-17T03:13:35;4.73;;;2.77;;
21806;SDS011;11065;50.786;7.840;2022-10-17T03:16:05;6.80;;;2.47;;
21806;SDS011;11065;50.786;7.840;2022-10-17T03:18:33;8.23;;;2.60;;
21806;SDS011;11065;50.786;7.840;2022-10-17T03:21:01;4.67;;;2.43;;
21806;SDS011;11065;50.786;7.840;2022-10-17T03:23:28;4.00;;;2.70;;
21806;SDS011;11065;50.786;7.840;2022-10-17T03:25:55;6.17;;;2.70;;
21806;SDS011;11065;50.786;7.840;2022-10-17T03:28:22;4.43;;;2.30;;
21806;SDS011;11065;50.786;7.840;2022-10-17T03:30:50;4.10;;;2.43;;
21806;SDS011;11065;50.786;7.840;2022-10-17T03:33:16;6.03;;;2.50;;
21806;SDS011;11065;50.786;7.840;2022-10-17T03:35:43;4.67;;;2.70;;
21806;SDS011;11065;50.786;7.840;2022-10-17T03:38:10;9.03;;;2.73;;
21806;SDS011;11065;50.786;7.840;2022-10-17T03:40:37;6.50;;;3.37;;
21806;SDS011;11065;50.786;7.840;2022-10-17T03:43:04;6.37;;;2.87;;
21806;SDS011;11065;50.786;7.840;2022-10-17T03:45:31;7.00;;;2.77;;
21806;SDS011;11065;50.786;7.840;2022-10-17T03:47:58;6.17;;;3.10;;
21806;SDS011;11065;50.786;7.840;2022-10-17T03:50:25;3.60;;;2.80;;
21806;SDS011;11065;50.786;7.840;2022-10-17T03:52:52;6.20;;;2.90;;
21806;SDS011;11065;50.786;7.840;2022-10-17T03:55:19;5.60;;;2.73;;
21806;SDS011;11065;50.786;7.840;2022-10-17T03:57:45;5.83;;;2.97;;
21806;SDS011;11065;50.786;7.840;2022-10-17T04:00:14;5.30;;;2.60;;
21806;SDS011;11065;50.786;7.840;2022-10-17T04:02:48;6.47;;;2.67;;
21806;SDS011;11065;50.786;7.840;2022-10-17T04:05:17;5.00;;;2.30;;
21806;SDS011;11065;50.786;7.840;2022-10-17T04:07:45;5.10;;;2.67;;
21806;SDS011;11065;50.786;7.840;2022-10-17T04:10:13;3.90;;;2.43;;
21806;SDS011;11065;50.786;7.840;2022-10-17T04:12:40;4.10;;;2.47;;
21806;SDS011;11065;50.786;7.840;2022-10-17T04:15:07;4.50;;;2.50;;
21806;SDS011;11065;50.786;7.840;2022-10-17T04:17:35;3.80;;;2.50;;
21806;SDS011;11065;50.786;7.840;2022-10-17T04:20:04;8.30;;;2.97;;
21806;SDS011;11065;50.786;7.840;2022-10-17T04:22:32;6.50;;;2.80;;
21806;SDS011;11065;50.786;7.840;2022-10-17T04:24:59;5.07;;;2.40;;
21806;SDS011;11065;50.786;7.840;2022-10-17T04:27:38;6.67;;;2.83;;
21806;SDS011;11065;50.786;7.840;2022-10-17T04:30:05;5.47;;;3.20;;
21806;SDS011;11065;50.786;7.840;2022-10-17T04:32:36;5.50;;;2.60;;
21806;SDS011;11065;50.786;7.840;2022-10-17T04:35:11;4.07;;;2.53;;
21806;SDS011;11065;50.786;7.840;2022-10-17T04:37:42;4.53;;;2.40;;
21806;SDS011;11065;50.786;7.840;2022-10-17T04:40:16;4.93;;;2.70;;
21806;SDS011;11065;50.786;7.840;2022-10-17T04:42:43;4.90;;;2.70;;
21806;SDS011;11065;50.786;7.840;2022-10-17T04:45:13;5.13;;;2.53;;
21806;SDS011;11065;50.786;7.840;2022-10-17T04:47:41;5.83;;;2.87;;
21806;SDS011;11065;50.786;7.840;2022-10-17T04:50:08;4.83;;;2.43;;
21806;SDS011;11065;50.786;7.840;2022-10-17T04:52:35;6.37;;;2.97;;
21806;SDS011;11065;50.786;7.840;2022-10-17T04:55:06;4.03;;;2.60;;
21806;SDS011;11065;50.786;7.840;2022-10-17T04:57:34;4.70;;;2.87;;
21806;SDS011;11065;50.786;7.840;2022-10-17T05:00:08;4.90;;;2.73;;
21806;SDS011;11065;50.786;7.840;2022-10-17T05:02:55;5.17;;;2.50;;
21806;SDS011;11065;50.786;7.840;2022-10-17T05:05:21;5.50;;;3.00;;
21806;SDS011;11065;50.786;7.840;2022-10-17T05:07:52;5.23;;;2.60;;
21806;SDS011;11065;50.786;7.840;2022-10-17T05:10:22;5.33;;;3.30;;
21806;SDS011;11065;50.786;7.840;2022-10-17T05:12:51;5.20;;;3.37;;
21806;SDS011;11065;50.786;7.840;2022-10-17T05:15:21;6.63;;;3.73;;
21806;SDS011;11065;50.786;7.840;2022-10-17T05:17:52;9.10;;;3.03;;
21806;SDS011;11065;50.786;7.840;2022-10-17T05:20:21;5.73;;;3.00;;
21806;SDS011;11065;50.786;7.840;2022-10-17T05:22:49;8.87;;;4.10;;
21806;SDS011;11065;50.786;7.840;2022-10-17T05:25:16;7.57;;;3.33;;
21806;SDS011;11065;50.786;7.840;2022-10-17T05:27:42;6.23;;;3.20;;
21806;SDS011;11065;50.786;7.840;2022-10-17T05:30:09;5.50;;;3.50;;
21806;SDS011;11065;50.786;7.840;2022-10-17T05:32:37;5.57;;;3.10;;
21806;SDS011;11065;50.786;7.840;2022-10-17T05:35:06;7.10;;;3.27;;
21806;SDS011;11065;50.786;7.840;2022-10-17T05:37:34;9.47;;;3.33;;
21806;SDS011;11065;50.786;7.840;2022-10-17T05:40:02;5.70;;;2.83;;
21806;SDS011;11065;50.786;7.840;2022-10-17T05:42:29;4.90;;;3.30;;
21806;SDS011;11065;50.786;7.840;2022-10-17T05:44:57;5.23;;;2.90;;
21806;SDS011;11065;50.786;7.840;2022-10-17T05:47:25;6.80;;;2.93;;
21806;SDS011;11065;50.786;7.840;2022-10-17T05:49:52;8.30;;;3.30;;
21806;SDS011;11065;50.786;7.840;2022-10-17T05:52:25;5.07;;;3.13;;
21806;SDS011;11065;50.786;7.840;2022-10-17T05:55:13;8.07;;;2.90;;
21806;SDS011;11065;50.786;7.840;2022-10-17T05:57:39;5.63;;;3.27;;
21806;SDS011;11065;50.786;7.840;2022-10-17T06:00:12;6.93;;;2.97;;
21806;SDS011;11065;50.786;7.840;2022-10-17T06:02:39;6.93;;;3.23;;
21806;SDS011;11065;50.786;7.840;2022-10-17T06:05:08;7.47;;;3.40;;
21806;SDS011;11065;50.786;7.840;2022-10-17T06:07:35;6.67;;;3.27;;
21806;SDS011;11065;50.786;7.840;2022-10-17T06:10:03;5.37;;;3.07;;
21806;SDS011;11065;50.786;7.840;2022-10-17T06:12:31;4.67;;;2.60;;
21806;SDS011;11065;50.786;7.840;2022-10-17T06:14:58;5.80;;;3.10;;
21806;SDS011;11065;50.786;7.840;2022-10-17T06:17:25;6.33;;;3.33;;
21806;SDS011;11065;50.786;7.840;2022-10-17T06:19:53;5.53;;;2.83;;
21806;SDS011;11065;50.786;7.840;2022-10-17T06:22:22;8.37;;;3.37;;
21806;SDS011;11065;50.786;7.840;2022-10-17T06:24:49;6.27;;;3.07;;
21806;SDS011;11065;50.786;7.840;2022-10-17T06:27:18;5.30;;;3.17;;
21806;SDS011;11065;50.786;7.840;2022-10-17T06:29:46;4.43;;;2.93;;
21806;SDS011;11065;50.786;7.840;2022-10-17T06:32:13;5.40;;;2.77;;
21806;SDS011;11065;50.786;7.840;2022-10-17T06:34:44;4.83;;;2.70;;
21806;SDS011;11065;50.786;7.840;2022-10-17T06:37:11;5.47;;;3.60;;
21806;SDS011;11065;50.786;7.840;2022-10-17T06:39:39;4.33;;;3.10;;
21806;SDS011;11065;50.786;7.840;2022-10-17T06:42:16;6.17;;;3.53;;
21806;SDS011;11065;50.786;7.840;2022-10-17T06:45:06;4.03;;;2.93;;
21806;SDS011;11065;50.786;7.840;2022-10-17T06:47:56;4.20;;;2.83;;
21806;SDS011;11065;50.786;7.840;2022-10-17T06:50:34;4.20;;;3.07;;
21806;SDS011;11065;50.786;7.840;2022-10-17T06:53:14;5.97;;;3.53;;
21806;SDS011;11065;50.786;7.840;2022-10-17T06:55:51;5.70;;;3.20;;
21806;SDS011;11065;50.786;7.840;2022-10-17T06:58:42;4.07;;;2.67;;
21806;SDS011;11065;50.786;7.840;2022-10-17T07:01:22;4.10;;;3.00;;
21806;SDS011;11065;50.786;7.840;2022-10-17T07:03:53;5.37;;;3.60;;
21806;SDS011;11065;50.786;7.840;2022-10-17T07:06:20;5.53;;;2.90;;
21806;SDS011;11065;50.786;7.840;2022-10-17T07:08:50;5.47;;;2.73;;
21806;SDS011;11065;50.786;7.840;2022-10-17T07:11:18;4.93;;;2.70;;
21806;SDS011;11065;50.786;7.840;2022-10-17T07:13:49;4.47;;;2.83;;
21806;SDS011;11065;50.786;7.840;2022-10-17T07:16:15;3.90;;;2.90;;
21806;SDS011;11065;50.786;7.840;2022-10-17T07:18:47;3.80;;;2.80;;
21806;SDS011;11065;50.786;7.840;2022-10-17T07:21:16;4.67;;;2.67;;
21806;SDS011;11065;50.786;7.840;2022-10-17T07:23:43;5.20;;;3.03;;
21806;SDS011;11065;50.786;7.840;2022-10-17T07:26:10;3.63;;;2.67;;
21806;SDS011;11065;50.786;7.840;2022-10-17T07:28:41;4.50;;;3.20;;
21806;SDS011;11065;50.786;7.840;2022-10-17T07:31:21;4.83;;;2.87;;
21806;SDS011;11065;50.786;7.840;2022-10-17T07:33:48;4.37;;;2.50;;
21806;SDS011;11065;50.786;7.840;2022-10-17T07:36:16;7.33;;;2.90;;
21806;SDS011;11065;50.786;7.840;2022-10-17T07:38:44;6.43;;;3.10;;
21806;SDS011;11065;50.786;7.840;2022-10-17T07:41:11;8.03;;;3.33;;
21806;SDS011;11065;50.786;7.840;2022-10-17T07:43:46;5.50;;;3.27;;
21806;SDS011;11065;50.786;7.840;2022-10-17T07:46:16;5.50;;;3.77;;
21806;SDS011;11065;50.786;7.840;2022-10-17T07:48:43;4.43;;;2.93;;
21806;SDS011;11065;50.786;7.840;2022-10-17T07:51:10;4.83;;;2.87;;
21806;SDS011;11065;50.786;7.840;2022-10-17T07:53:37;4.03;;;2.90;;
21806;SDS011;11065;50.786;7.840;2022-10-17T07:56:09;4.40;;;3.00;;
21806;SDS011;11065;50.786;7.840;2022-10-17T07:58:36;5.43;;;2.63;;
21806;SDS011;11065;50.786;7.840;2022-10-17T08:01:05;5.47;;;2.60;;
21806;SDS011;11065;50.786;7.840;2022-10-17T08:03:39;5.00;;;2.77;;
21806;SDS011;11065;50.786;7.840;2022-10-17T08:06:08;4.10;;;2.83;;
21806;SDS011;11065;50.786;7.840;2022-10-17T08:08:34;3.70;;;2.90;;
21806;SDS011;11065;50.786;7.840;2022-10-17T08:11:02;4.87;;;2.63;;
21806;SDS011;11065;50.786;7.840;2022-10-17T08:13:31;4.77;;;2.80;;
21806;SDS011;11065;50.786;7.840;2022-10-17T08:15:59;5.43;;;2.70;;
21806;SDS011;11065;50.786;7.840;2022-10-17T08:18:27;3.37;;;2.63;;
21806;SDS011;11065;50.786;7.840;2022-10-17T08:20:54;6.10;;;2.87;;
21806;SDS011;11065;50.786;7.840;2022-10-17T08:23:26;4.43;;;3.20;;
21806;SDS011;11065;50.786;7.840;2022-10-17T08:25:53;3.67;;;2.90;;
21806;SDS011;11065;50.786;7.840;2022-10-17T08:28:20;6.20;;;3.10;;
21806;SDS011;11065;50.786;7.840;2022-10-17T08:30:47;5.17;;;2.67;;
21806;SDS011;11065;50.786;7.840;2022-10-17T08:33:13;5.33;;;3.13;;
21806;SDS011;11065;50.786;7.840;2022-10-17T08:35:40;3.33;;;2.73;;
21806;SDS011;11065;50.786;7.840;2022-10-17T08:38:07;4.63;;;2.80;;
21806;SDS011;11065;50.786;7.840;2022-10-17T08:40:38;4.35;;;2.90;;
21806;SDS011;11065;50.786;7.840;2022-10-17T08:43:15;3.50;;;2.25;;
21806;SDS011;11065;50.786;7.840;2022-10-17T08:45:52;4.18;;;2.45;;
21806;SDS011;11065;50.786;7.840;2022-10-17T08:48:24;3.67;;;2.60;;
21806;SDS011;11065;50.786;7.840;2022-10-17T08:50:58;3.95;;;2.17;;
21806;SDS011;11065;50.786;7.840;2022-10-17T08:53:40;3.83;;;2.25;;
21806;SDS011;11065;50.786;7.840;2022-10-17T08:56:18;5.80;;;2.55;;
21806;SDS011;11065;50.786;7.840;2022-10-17T08:59:22;3.97;;;1.88;;
21806;SDS011;11065;50.786;7.840;2022-10-17T09:01:57;4.80;;;1.88;;
21806;SDS011;11065;50.786;7.840;2022-10-17T09:04:33;2.65;;;1.90;;
21806;SDS011;11065;50.786;7.840;2022-10-17T09:18:25;4.82;;;1.95;;
21806;SDS011;11065;50.786;7.840;2022-10-17T09:21:08;5.28;;;1.95;;
21806;SDS011;11065;50.786;7.840;2022-10-17T09:23:44;5.85;;;1.85;;
21806;SDS011;11065;50.786;7.840;2022-10-17T09:26:24;2.78;;;2.00;;
21806;SDS011;11065;50.786;7.840;2022-10-17T09:28:52;4.43;;;1.92;;
21806;SDS011;11065;50.786;7.840;2022-10-17T09:31:22;3.45;;;1.63;;
21806;SDS011;11065;50.786;7.840;2022-10-17T09:33:53;3.83;;;1.88;;
21806;SDS011;11065;50.786;7.840;2022-10-17T09:36:23;5.05;;;2.38;;
21806;SDS011;11065;50.786;7.840;2022-10-17T09:39:01;3.65;;;1.80;;
21806;SDS011;11065;50.786;7.840;2022-10-17T09:41:40;3.00;;;1.88;;
21806;SDS011;11065;50.786;7.840;2022-10-17T09:44:22;2.50;;;1.60;;
21806;SDS011;11065;50.786;7.840;2022-10-17T09:49:45;4.13;;;1.65;;
21806;SDS011;11065;50.786;7.840;2022-10-17T09:52:15;2.33;;;1.75;;
21806;SDS011;11065;50.786;7.840;2022-10-17T09:54:46;3.92;;;1.50;;
21806;SDS011;11065;50.786;7.840;2022-10-17T09:57:16;3.15;;;1.77;;
21806;SDS011;11065;50.786;7.840;2022-10-17T09:59:55;2.65;;;1.73;;
21806;SDS011;11065;50.786;7.840;2022-10-17T10:02:27;2.38;;;1.58;;
21806;SDS011;11065;50.786;7.840;2022-10-17T10:04:58;2.83;;;1.65;;
21806;SDS011;11065;50.786;7.840;2022-10-17T10:07:33;3.20;;;1.80;;
21806;SDS011;11065;50.786;7.840;2022-10-17T10:10:03;5.82;;;1.70;;
21806;SDS011;11065;50.786;7.840;2022-10-17T10:12:37;2.63;;;1.70;;
21806;SDS011;11065;50.786;7.840;2022-10-17T10:15:28;2.15;;;1.75;;
21806;SDS011;11065;50.786;7.840;2022-10-17T10:17:59;3.70;;;1.83;;
21806;SDS011;11065;50.786;7.840;2022-10-17T10:20:27;2.88;;;2.13;;
21806;SDS011;11065;50.786;7.840;2022-10-17T10:23:05;3.42;;;1.65;;
21806;SDS011;11065;50.786;7.840;2022-10-17T10:25:33;3.53;;;1.63;;
21806;SDS011;11065;50.786;7.840;2022-10-17T10:28:01;3.60;;;1.95;;
21806;SDS011;11065;50.786;7.840;2022-10-17T10:30:36;10.00;;;1.98;;
21806;SDS011;11065;50.786;7.840;2022-10-17T10:33:05;4.05;;;1.70;;
21806;SDS011;11065;50.786;7.840;2022-10-17T10:35:42;4.50;;;2.00;;
21806;SDS011;11065;50.786;7.840;2022-10-17T10:38:19;3.72;;;1.80;;
21806;SDS011;11065;50.786;7.840;2022-10-17T10:40:50;4.10;;;1.85;;
21806;SDS011;11065;50.786;7.840;2022-10-17T10:43:31;4.53;;;1.88;;
21806;SDS011;11065;50.786;7.840;2022-10-17T10:45:58;5.38;;;1.77;;
21806;SDS011;11065;50.786;7.840;2022-10-17T10:48:30;5.88;;;1.70;;
21806;SDS011;11065;50.786;7.840;2022-10-17T10:56:36;4.65;;;1.58;;
21806;SDS011;11065;50.786;7.840;2022-10-17T11:04:30;4.00;;;1.50;;
21806;SDS011;11065;50.786;7.840;2022-10-17T11:07:12;10.13;;;2.00;;
21806;SDS011;11065;50.786;7.840;2022-10-17T11:09:44;2.65;;;1.60;;
21806;SDS011;11065;50.786;7.840;2022-10-17T11:12:26;4.25;;;1.48;;
21806;SDS011;11065;50.786;7.840;2022-10-17T11:15:06;2.58;;;1.40;;
21806;SDS011;11065;50.786;7.840;2022-10-17T11:20:40;3.30;;;2.13;;
21806;SDS011;11065;50.786;7.840;2022-10-17T11:26:20;3.08;;;1.60;;
21806;SDS011;11065;50.786;7.840;2022-10-17T11:28:52;4.65;;;1.45;;
21806;SDS011;11065;50.786;7.840;2022-10-17T11:31:25;2.72;;;1.60;;
21806;SDS011;11065;50.786;7.840;2022-10-17T11:33:57;5.68;;;1.88;;
21806;SDS011;11065;50.786;7.840;2022-10-17T11:36:28;4.05;;;1.50;;
21806;SDS011;11065;50.786;7.840;2022-10-17T11:39:17;4.32;;;1.83;;
21806;SDS011;11065;50.786;7.840;2022-10-17T11:42:06;3.58;;;1.95;;
21806;SDS011;11065;50.786;7.840;2022-10-17T11:44:38;7.18;;;2.00;;
21806;SDS011;11065;50.786;7.840;2022-10-17T11:49:37;3.72;;;1.70;;
21806;SDS011;11065;50.786;7.840;2022-10-17T11:52:20;4.35;;;1.73;;
21806;SDS011;11065;50.786;7.840;2022-10-17T11:55:18;3.78;;;1.90;;
21806;SDS011;11065;50.786;7.840;2022-10-17T12:11:34;2.22;;;1.55;;
21806;SDS011;11065;50.786;7.840;2022-10-17T12:14:33;2.88;;;1.67;;
21806;SDS011;11065;50.786;7.840;2022-10-17T12:17:20;2.28;;;1.75;;
21806;SDS011;11065;50.786;7.840;2022-10-17T12:22:54;3.75;;;1.88;;
21806;SDS011;11065;50.786;7.840;2022-10-17T12:25:47;2.97;;;1.88;;
21806;SDS011;11065;50.786;7.840;2022-10-17T12:28:30;2.28;;;1.80;;
21806;SDS011;11065;50.786;7.840;2022-10-17T12:38:42;4.10;;;1.73;;
21806;SDS011;11065;50.786;7.840;2022-10-17T12:41:15;5.03;;;2.08;;
21806;SDS011;11065;50.786;7.840;2022-10-17T12:49:36;4.95;;;2.05;;
21806;SDS011;11065;50.786;7.840;2022-10-17T12:57:46;4.63;;;2.20;;
21806;SDS011;11065;50.786;7.840;2022-10-17T13:00:21;3.33;;;1.60;;
21806;SDS011;11065;50.786;7.840;2022-10-17T13:03:21;4.22;;;1.92;;
21806;SDS011;11065;50.786;7.840;2022-10-17T13:05:58;3.17;;;1.65;;
21806;SDS011;11065;50.786;7.840;2022-10-17T13:10:57;3.92;;;1.92;;
21806;SDS011;11065;50.786;7.840;2022-10-17T13:13:34;5.32;;;2.55;;
21806;SDS011;11065;50.786;7.840;2022-10-17T13:16:34;7.18;;;2.33;;
21806;SDS011;11065;50.786;7.840;2022-10-17T13:19:12;4.05;;;1.88;;
21806;SDS011;11065;50.786;7.840;2022-10-17T13:24:30;4.22;;;2.10;;
21806;SDS011;11065;50.786;7.840;2022-10-17T13:26:58;3.72;;;1.98;;
21806;SDS011;11065;50.786;7.840;2022-10-17T13:29:26;5.18;;;2.03;;
21806;SDS011;11065;50.786;7.840;2022-10-17T13:31:56;4.28;;;2.03;;
21806;SDS011;11065;50.786;7.840;2022-10-17T13:34:27;3.15;;;1.85;;
21806;SDS011;11065;50.786;7.840;2022-10-17T13:36:59;6.30;;;2.10;;
21806;SDS011;11065;50.786;7.840;2022-10-17T13:39:47;6.85;;;2.05;;
21806;SDS011;11065;50.786;7.840;2022-10-17T13:42:27;3.60;;;2.00;;
21806;SDS011;11065;50.786;7.840;2022-10-17T13:44:56;5.28;;;2.28;;
21806;SDS011;11065;50.786;7.840;2022-10-17T13:47:28;4.47;;;1.67;;
21806;SDS011;11065;50.786;7.840;2022-10-17T13:49:59;3.05;;;1.45;;
21806;SDS011;11065;50.786;7.840;2022-10-17T13:52:27;4.50;;;2.08;;
21806;SDS011;11065;50.786;7.840;2022-10-17T13:55:06;6.93;;;2.13;;
21806;SDS011;11065;50.786;7.840;2022-10-17T13:57:38;3.22;;;2.20;;
21806;SDS011;11065;50.786;7.840;2022-10-17T14:00:06;3.15;;;2.28;;
21806;SDS011;11065;50.786;7.840;2022-10-17T14:02:43;3.25;;;1.85;;
21806;SDS011;11065;50.786;7.840;2022-10-17T14:05:11;5.80;;;2.50;;
21806;SDS011;11065;50.786;7.840;2022-10-17T14:10:39;3.67;;;2.03;;
21806;SDS011;11065;50.786;7.840;2022-10-17T14:13:21;4.20;;;2.05;;
21806;SDS011;11065;50.786;7.840;2022-10-17T14:15:52;5.05;;;2.33;;
21806;SDS011;11065;50.786;7.840;2022-10-17T14:18:24;4.32;;;2.08;;
21806;SDS011;11065;50.786;7.840;2022-10-17T14:21:00;4.97;;;2.30;;
21806;SDS011;11065;50.786;7.840;2022-10-17T14:23:48;5.68;;;2.42;;
21806;SDS011;11065;50.786;7.840;2022-10-17T14:26:24;5.47;;;2.00;;
21806;SDS011;11065;50.786;7.840;2022-10-17T14:29:04;3.67;;;1.80;;
21806;SDS011;11065;50.786;7.840;2022-10-17T14:31:33;6.00;;;2.17;;
21806;SDS011;11065;50.786;7.840;2022-10-17T14:34:02;3.10;;;2.03;;
21806;SDS011;11065;50.786;7.840;2022-10-17T14:36:36;5.18;;;1.95;;
21806;SDS011;11065;50.786;7.840;2022-10-17T14:39:06;3.90;;;2.00;;
21806;SDS011;11065;50.786;7.840;2022-10-17T14:41:43;6.13;;;2.67;;
21806;SDS011;11065;50.786;7.840;2022-10-17T14:46:56;4.07;;;2.60;;
21806;SDS011;11065;50.786;7.840;2022-10-17T14:49:36;4.75;;;2.17;;
21806;SDS011;11065;50.786;7.840;2022-10-17T14:54:44;4.38;;;2.08;;
21806;SDS011;11065;50.786;7.840;2022-10-17T14:57:18;3.75;;;1.95;;
21806;SDS011;11065;50.786;7.840;2022-10-17T14:59:45;3.05;;;2.03;;
21806;SDS011;11065;50.786;7.840;2022-10-17T15:02:21;3.70;;;2.20;;
21806;SDS011;11065;50.786;7.840;2022-10-17T15:04:49;4.30;;;2.17;;
21806;SDS011;11065;50.786;7.840;2022-10-17T15:07:16;4.20;;;1.70;;
21806;SDS011;11065;50.786;7.840;2022-10-17T15:09:44;6.40;;;2.00;;
21806;SDS011;11065;50.786;7.840;2022-10-17T15:12:17;3.72;;;2.15;;
21806;SDS011;11065;50.786;7.840;2022-10-17T15:14:47;7.18;;;2.00;;
21806;SDS011;11065;50.786;7.840;2022-10-17T15:17:16;4.82;;;2.00;;
21806;SDS011;11065;50.786;7.840;2022-10-17T15:19:46;5.55;;;2.13;;
21806;SDS011;11065;50.786;7.840;2022-10-17T15:22:13;5.82;;;1.90;;
21806;SDS011;11065;50.786;7.840;2022-10-17T15:24:41;6.80;;;2.30;;
21806;SDS011;11065;50.786;7.840;2022-10-17T15:27:18;5.85;;;2.33;;
21806;SDS011;11065;50.786;7.840;2022-10-17T15:29:49;3.60;;;2.28;;
21806;SDS011;11065;50.786;7.840;2022-10-17T15:32:16;4.60;;;2.40;;
21806;SDS011;11065;50.786;7.840;2022-10-17T15:34:43;6.22;;;2.42;;
21806;SDS011;11065;50.786;7.840;2022-10-17T15:37:15;11.85;;;2.45;;
21806;SDS011;11065;50.786;7.840;2022-10-17T15:39:50;5.10;;;2.20;;
21806;SDS011;11065;50.786;7.840;2022-10-17T15:42:20;4.57;;;2.13;;
21806;SDS011;11065;50.786;7.840;2022-10-17T15:44:47;3.83;;;2.23;;
21806;SDS011;11065;50.786;7.840;2022-10-17T15:47:18;3.10;;;2.17;;
21806;SDS011;11065;50.786;7.840;2022-10-17T15:49:52;3.70;;;1.90;;
21806;SDS011;11065;50.786;7.840;2022-10-17T15:52:20;6.20;;;2.20;;
21806;SDS011;11065;50.786;7.840;2022-10-17T15:54:48;7.10;;;2.20;;
21806;SDS011;11065;50.786;7.840;2022-10-17T15:57:18;7.93;;;2.40;;
21806;SDS011;11065;50.786;7.840;2022-10-17T15:59:50;3.17;;;1.90;;
21806;SDS011;11065;50.786;7.840;2022-10-17T16:02:21;5.27;;;2.17;;
21806;SDS011;11065;50.786;7.840;2022-10-17T16:04:49;3.70;;;2.23;;
21806;SDS011;11065;50.786;7.840;2022-10-17T16:07:17;5.13;;;2.23;;
21806;SDS011;11065;50.786;7.840;2022-10-17T16:09:47;5.63;;;2.13;;
21806;SDS011;11065;50.786;7.840;2022-10-17T16:12:25;3.70;;;2.30;;
21806;SDS011;11065;50.786;7.840;2022-10-17T16:14:54;6.37;;;2.10;;
21806;SDS011;11065;50.786;7.840;2022-10-17T16:17:21;5.77;;;2.50;;
21806;SDS011;11065;50.786;7.840;2022-10-17T16:19:48;4.23;;;2.23;;
21806;SDS011;11065;50.786;7.840;2022-10-17T16:22:31;4.87;;;2.30;;
21806;SDS011;11065;50.786;7.840;2022-10-17T16:25:06;3.80;;;2.23;;
21806;SDS011;11065;50.786;7.840;2022-10-17T16:27:48;5.17;;;2.03;;
21806;SDS011;11065;50.786;7.840;2022-10-17T16:30:17;6.83;;;2.20;;
21806;SDS011;11065;50.786;7.840;2022-10-17T16:32:44;8.30;;;2.37;;
21806;SDS011;11065;50.786;7.840;2022-10-17T16:35:16;5.57;;;2.03;;
21806;SDS011;11065;50.786;7.840;2022-10-17T16:37:45;9.37;;;2.37;;
21806;SDS011;11065;50.786;7.840;2022-10-17T16:40:12;5.53;;;2.33;;
21806;SDS011;11065;50.786;7.840;2022-10-17T16:42:39;6.13;;;1.97;;
21806;SDS011;11065;50.786;7.840;2022-10-17T16:45:06;6.63;;;2.17;;
21806;SDS011;11065;50.786;7.840;2022-10-17T16:47:33;4.00;;;1.87;;
21806;SDS011;11065;50.786;7.840;2022-10-17T16:50:00;3.70;;;2.10;;
21806;SDS011;11065;50.786;7.840;2022-10-17T16:52:27;4.73;;;2.13;;
21806;SDS011;11065;50.786;7.840;2022-10-17T16:54:54;3.37;;;1.97;;
21806;SDS011;11065;50.786;7.840;2022-10-17T16:57:21;4.20;;;1.90;;
21806;SDS011;11065;50.786;7.840;2022-10-17T16:59:47;8.63;;;2.10;;
21806;SDS011;11065;50.786;7.840;2022-10-17T17:02:14;4.57;;;2.10;;
21806;SDS011;11065;50.786;7.840;2022-10-17T17:04:46;7.17;;;2.43;;
21806;SDS011;11065;50.786;7.840;2022-10-17T17:07:13;6.27;;;2.37;;
21806;SDS011;11065;50.786;7.840;2022-10-17T17:09:40;5.10;;;2.30;;